Time;durP1;ratioP1;P1;durP2;ratioP2;P2;SDS_P1;SDS_P2;PMS_P1;PMS_P2;Temp;Humidity;BMP_temperature;BMP_pressure;BME280_temperature;BME280_humidity;BME280_pressure;Samples;Min_cycle;Max_cycle;Signal;HPM_P1;HPM_P2
2023/09/13 00:01:56;;;;;;;0.40;0.40;;;20.80;99.90;;;;;;5009918;28;20038;-81
2023/09/13 00:04:23;;;;;;;0.40;0.40;;;20.80;99.90;;;;;;5005827;28;20031;-79
2023/09/13 00:06:49;;;;;;;0.32;0.32;;;20.80;99.90;;;;;;5002605;28;20033;-80
2023/09/13 00:09:15;;;;;;;0.57;0.30;;;20.70;99.90;;;;;;5006505;28;20029;-79
2023/09/13 00:11:41;;;;;;;0.70;0.57;;;20.70;99.90;;;;;;5005140;28;20026;-80
2023/09/13 00:14:07;;;;;;;0.20;0.20;;;20.60;99.90;;;;;;5000243;28;20424;-81
2023/09/13 00:16:34;;;;;;;0.80;0.57;;;20.50;99.90;;;;;;5004617;28;20029;-79
2023/09/13 00:19:03;;;;;;;1.13;0.70;;;20.40;99.90;;;;;;5003336;28;20452;-81
2023/09/13 00:21:30;;;;;;;0.70;0.63;;;20.30;99.90;;;;;;5001692;28;20361;-79
2023/09/13 00:23:57;;;;;;;1.70;0.50;;;20.30;99.90;;;;;;5003439;28;20026;-80
2023/09/13 00:26:23;;;;;;;0.30;0.30;;;20.30;99.90;;;;;;5006809;28;20383;-80
2023/09/13 00:28:51;;;;;;;0.20;0.20;;;20.30;99.90;;;;;;5004958;28;20045;-80
2023/09/13 00:31:17;;;;;;;0.52;0.40;;;20.30;99.90;;;;;;5003311;28;20380;-80
2023/09/13 00:33:43;;;;;;;0.73;0.73;;;20.30;99.90;;;;;;5015160;28;20037;-79
2023/09/13 00:36:09;;;;;;;0.30;0.30;;;20.20;99.90;;;;;;5002906;28;20026;-80
2023/09/13 00:38:35;;;;;;;0.90;0.90;;;20.20;99.90;;;;;;5001696;28;20065;-80
2023/09/13 00:41:01;;;;;;;0.25;0.25;;;20.10;99.90;;;;;;4990124;28;20038;-81
2023/09/13 00:43:28;;;;;;;0.20;0.20;;;20.10;99.90;;;;;;5004377;28;20375;-80
2023/09/13 00:45:55;;;;;;;0.55;0.55;;;20.00;99.90;;;;;;5002779;28;20844;-80
2023/09/13 00:48:23;;;;;;;0.73;0.57;;;20.00;1.00;;;;;;5003724;28;20057;-80
2023/09/13 00:50:50;;;;;;;0.35;0.30;;;19.80;1.00;;;;;;5006713;28;20033;-79
2023/09/13 00:53:17;;;;;;;0.57;0.55;;;19.50;1.00;;;;;;5009320;28;20045;-79
2023/09/13 00:55:44;;;;;;;0.95;0.65;;;19.30;1.00;;;;;;4998888;28;20068;-80
2023/09/13 00:58:11;;;;;;;1.48;0.93;;;19.20;1.00;;;;;;5001944;28;20042;-79
2023/09/13 01:00:37;;;;;;;0.30;0.30;;;19.10;1.00;;;;;;5002300;28;20447;-79
2023/09/13 01:03:06;;;;;;;0.77;0.77;;;19.10;12.10;;;;;;5002011;28;20388;-80
2023/09/13 01:05:35;;;;;;;0.55;0.50;;;18.90;23.70;;;;;;5000940;28;20412;-81
2023/09/13 01:08:02;;;;;;;1.35;0.93;;;18.90;34.50;;;;;;5002798;28;20030;-81
2023/09/13 01:10:28;;;;;;;1.00;0.77;;;18.90;42.30;;;;;;5009697;28;20041;-79
2023/09/13 01:12:54;;;;;;;1.20;1.10;;;18.90;44.70;;;;;;5006551;28;20039;-79
2023/09/13 01:15:22;;;;;;;0.52;0.45;;;18.80;65.30;;;;;;4998135;28;20034;-80
2023/09/13 01:17:52;;;;;;;0.73;0.73;;;18.80;84.50;;;;;;5004028;28;20021;-79
2023/09/13 01:20:44;;;;;;;0.43;0.40;;;18.60;96.30;;;;;;5001091;28;20030;-80
2023/09/13 01:23:50;;;;;;;0.50;0.30;;;18.50;99.90;;;;;;4999058;28;20027;-80
2023/09/13 01:26:44;;;;;;;0.98;0.63;;;18.50;99.90;;;;;;4995461;28;20394;-80
2023/09/13 01:29:16;;;;;;;1.08;0.82;;;18.60;75.70;;;;;;5001239;28;20042;-80
2023/09/13 01:31:42;;;;;;;0.63;0.63;;;18.60;54.80;;;;;;5004422;28;20068;-81
2023/09/13 01:34:10;;;;;;;0.68;0.50;;;18.60;22.80;;;;;;5002433;28;20034;-80
2023/09/13 01:36:37;;;;;;;0.30;0.30;;;18.60;25.00;;;;;;5002824;28;20052;-79
2023/09/13 01:39:05;;;;;;;0.63;0.63;;;18.70;39.60;;;;;;5007288;28;20041;-81
2023/09/13 01:41:42;;;;;;;10.07;1.50;;;18.60;54.50;;;;;;4999357;28;20030;-80
2023/09/13 01:44:09;;;;;;;0.50;0.40;;;18.50;59.00;;;;;;4998181;28;20033;-80
2023/09/13 01:46:39;;;;;;;0.17;0.17;;;18.60;58.00;;;;;;5002458;28;20360;-79
2023/09/13 01:49:06;;;;;;;2.17;1.30;;;19.00;1.00;;;;;;4999034;28;20045;-81
2023/09/13 01:51:33;;;;;;;0.52;0.52;;;19.20;1.00;;;;;;5002756;28;20026;-79
2023/09/13 01:53:59;;;;;;;1.08;0.73;;;19.40;1.00;;;;;;5008491;28;20359;-80
2023/09/13 01:56:26;;;;;;;0.20;0.20;;;19.50;1.00;;;;;;5005709;28;20042;-79
2023/09/13 01:58:52;;;;;;;0.73;0.70;;;19.60;1.00;;;;;;5002251;28;20033;-79
2023/09/13 02:01:19;;;;;;;0.30;0.30;;;19.70;1.00;;;;;;5007946;28;20387;-79
2023/09/13 02:03:45;;;;;;;0.30;0.30;;;19.60;1.00;;;;;;5007376;28;20050;-79
2023/09/13 02:06:14;;;;;;;0.45;0.38;;;19.60;1.00;;;;;;4998206;28;20041;-79
2023/09/13 02:08:42;;;;;;;0.20;0.20;;;19.70;1.00;;;;;;5001655;28;20038;-80
2023/09/13 02:11:09;;;;;;;1.45;0.95;;;19.70;1.00;;;;;;5001474;28;20022;-81
2023/09/13 02:13:35;;;;;;;1.25;0.57;;;19.70;1.00;;;;;;5009407;28;20052;-80
2023/09/13 02:16:01;;;;;;;0.17;0.17;;;19.60;1.00;;;;;;5004974;28;20455;-78
2023/09/13 02:18:27;;;;;;;0.28;0.28;;;19.60;1.00;;;;;;5008802;28;20030;-78
2023/09/13 02:20:54;;;;;;;0.80;0.32;;;19.60;1.00;;;;;;5009412;28;20038;-78
2023/09/13 02:23:20;;;;;;;0.40;0.40;;;19.50;1.00;;;;;;5010856;28;20034;-78
2023/09/13 02:25:47;;;;;;;0.43;0.43;;;19.50;1.00;;;;;;5006377;28;20049;-77
2023/09/13 02:28:13;;;;;;;2.20;0.88;;;19.40;1.00;;;;;;5006298;28;20037;-77
2023/09/13 02:30:40;;;;;;;0.40;0.32;;;19.40;1.00;;;;;;5004468;28;20045;-78
2023/09/13 02:33:07;;;;;;;1.13;1.10;;;19.30;1.00;;;;;;5016941;28;20493;-79
2023/09/13 02:35:33;;;;;;;0.30;0.30;;;19.30;1.00;;;;;;5001901;28;20456;-78
2023/09/13 02:38:00;;;;;;;0.47;0.45;;;19.20;1.00;;;;;;5012253;28;20042;-78
2023/09/13 02:40:26;;;;;;;0.28;0.28;;;19.20;1.00;;;;;;5005230;28;20341;-78
2023/09/13 02:42:52;;;;;;;5.22;1.13;;;19.10;1.00;;;;;;4995742;28;20038;-78
2023/09/13 02:45:19;;;;;;;0.32;0.30;;;19.10;1.00;;;;;;5011757;28;20069;-78
2023/09/13 02:47:46;;;;;;;2.92;1.25;;;19.10;1.00;;;;;;5004746;28;20388;-78
2023/09/13 02:50:12;;;;;;;2.17;0.85;;;19.10;1.00;;;;;;4999235;28;20447;-78
2023/09/13 02:52:38;;;;;;;0.57;0.57;;;19.00;1.00;;;;;;5006884;28;20050;-78
2023/09/13 02:55:08;;;;;;;5.22;1.15;;;19.00;1.00;;;;;;5005520;28;20053;-78
2023/09/13 02:57:34;;;;;;;0.85;0.55;;;19.00;1.00;;;;;;5005264;28;20042;-78
2023/09/13 03:00:03;;;;;;;0.63;0.63;;;18.90;1.00;;;;;;5006887;28;20038;-78
2023/09/13 03:02:32;;;;;;;0.35;0.35;;;18.90;1.00;;;;;;5007868;28;20380;-78
2023/09/13 03:04:58;;;;;;;1.40;0.50;;;18.90;1.00;;;;;;5007374;28;20026;-79
2023/09/13 03:07:24;;;;;;;0.40;0.40;;;18.90;1.00;;;;;;5001278;28;20379;-78
2023/09/13 03:09:54;;;;;;;1.05;0.57;;;18.80;1.00;;;;;;5007802;28;20042;-78
2023/09/13 03:12:21;;;;;;;0.40;0.40;;;18.80;1.00;;;;;;5009326;28;20046;-78
2023/09/13 03:14:49;;;;;;;1.05;0.70;;;18.80;2.40;;;;;;4999918;28;20041;-78
2023/09/13 03:17:15;;;;;;;0.85;0.85;;;18.70;3.40;;;;;;4995134;28;20053;-79
2023/09/13 03:19:41;;;;;;;0.25;0.25;;;18.80;1.00;;;;;;5006294;28;20471;-78
2023/09/13 03:22:07;;;;;;;0.10;0.10;;;18.70;12.30;;;;;;5009135;28;20061;-80
2023/09/13 03:24:35;;;;;;;1.45;0.85;;;18.70;9.90;;;;;;5005355;28;20049;-78
2023/09/13 03:27:02;;;;;;;0.88;0.73;;;18.70;17.60;;;;;;5005091;28;20034;-78
2023/09/13 03:29:28;;;;;;;1.88;1.13;;;18.70;19.40;;;;;;4990223;28;20073;-78
2023/09/13 03:31:55;;;;;;;0.95;0.95;;;18.70;19.10;;;;;;5000400;28;20049;-78
2023/09/13 03:34:21;;;;;;;0.38;0.38;;;18.70;16.10;;;;;;5003490;28;20488;-78
2023/09/13 03:36:47;;;;;;;1.25;0.85;;;18.70;29.40;;;;;;5004535;28;20041;-78
2023/09/13 03:39:14;;;;;;;0.73;0.40;;;18.60;42.40;;;;;;5002720;28;20089;-79
2023/09/13 03:41:40;;;;;;;0.70;0.57;;;18.60;28.80;;;;;;5008739;28;20037;-79
2023/09/13 03:44:07;;;;;;;0.65;0.65;;;18.60;41.30;;;;;;5010592;28;20030;-78
2023/09/13 03:46:34;;;;;;;0.47;0.45;;;18.60;42.70;;;;;;5008594;28;20049;-78
2023/09/13 03:49:01;;;;;;;0.30;0.30;;;18.50;49.30;;;;;;5001465;28;20038;-77
2023/09/13 03:51:27;;;;;;;1.13;0.65;;;18.50;47.10;;;;;;5002951;28;20423;-78
2023/09/13 03:53:54;;;;;;;0.20;0.20;;;18.50;48.50;;;;;;5010134;28;20452;-78
2023/09/13 03:56:20;;;;;;;1.30;1.00;;;18.50;57.50;;;;;;4998898;28;20053;-78
2023/09/13 03:58:47;;;;;;;0.93;0.50;;;18.50;61.40;;;;;;4999565;28;20030;-78
2023/09/13 04:01:13;;;;;;;0.20;0.20;;;18.50;66.70;;;;;;5002500;28;20035;-80
2023/09/13 04:03:39;;;;;;;0.30;0.30;;;18.50;64.60;;;;;;5008194;28;20038;-78
2023/09/13 04:06:05;;;;;;;0.32;0.32;;;18.40;68.60;;;;;;5004577;28;20054;-78
2023/09/13 04:08:32;;;;;;;0.88;0.68;;;18.40;81.70;;;;;;5005668;28;20030;-79
2023/09/13 04:10:58;;;;;;;1.10;0.82;;;18.40;91.30;;;;;;5006837;28;20062;-79
2023/09/13 04:13:24;;;;;;;0.50;0.50;;;18.40;99.90;;;;;;5008069;28;20046;-79
2023/09/13 04:15:52;;;;;;;0.73;0.68;;;18.30;99.90;;;;;;4998415;28;20472;-79
2023/09/13 04:18:18;;;;;;;0.30;0.30;;;18.30;99.90;;;;;;4990098;28;20468;-81
2023/09/13 04:20:46;;;;;;;0.35;0.30;;;18.30;99.90;;;;;;5006517;28;20038;-80
2023/09/13 04:23:13;;;;;;;0.93;0.93;;;18.30;99.90;;;;;;4997895;28;20038;-80
2023/09/13 04:25:39;;;;;;;0.73;0.40;;;18.40;99.90;;;;;;5003248;28;20049;-79
2023/09/13 04:28:08;;;;;;;1.38;0.80;;;18.40;95.30;;;;;;5010034;28;20034;-78
2023/09/13 04:30:34;;;;;;;3.65;1.25;;;18.40;92.50;;;;;;5001787;28;20050;-79
2023/09/13 04:33:02;;;;;;;0.75;0.63;;;18.40;95.90;;;;;;5009804;28;20049;-79
2023/09/13 04:35:28;;;;;;;0.55;0.55;;;18.50;96.00;;;;;;5003630;28;20056;-78
2023/09/13 04:37:55;;;;;;;1.33;0.65;;;18.40;99.90;;;;;;5001440;28;20103;-79
2023/09/13 04:40:21;;;;;;;1.38;0.82;;;18.40;99.90;;;;;;5003540;28;20049;-79
2023/09/13 04:43:16;;;;;;;0.63;0.35;;;18.30;99.90;;;;;;4992235;28;20037;-79
2023/09/13 04:45:43;;;;;;;1.15;0.73;;;18.20;99.90;;;;;;5000861;28;20118;-79
2023/09/13 04:48:09;;;;;;;0.75;0.75;;;18.10;99.90;;;;;;5002543;28;20050;-79
2023/09/13 04:50:36;;;;;;;1.58;0.98;;;18.00;99.90;;;;;;5006878;28;20484;-80
2023/09/13 04:53:02;;;;;;;1.83;1.13;;;18.00;99.90;;;;;;5005554;28;20026;-79
2023/09/13 04:55:29;;;;;;;0.70;0.70;;;17.90;99.90;;;;;;5005247;28;20049;-79
2023/09/13 04:57:55;;;;;;;1.45;1.00;;;18.00;99.90;;;;;;5008991;28;20046;-80
2023/09/13 05:00:23;;;;;;;1.15;0.45;;;18.10;99.90;;;;;;5004624;28;20041;-79
2023/09/13 05:02:50;;;;;;;1.58;0.93;;;18.20;99.90;;;;;;5008473;28;20116;-79
2023/09/13 05:05:16;;;;;;;1.23;0.80;;;18.20;99.90;;;;;;5003525;28;20042;-80
2023/09/13 05:07:42;;;;;;;0.45;0.43;;;18.20;99.90;;;;;;5001760;28;20033;-77
2023/09/13 05:10:09;;;;;;;1.58;0.85;;;18.20;99.90;;;;;;5008197;28;20038;-80
2023/09/13 05:12:35;;;;;;;0.50;0.50;;;18.20;99.90;;;;;;5006588;28;20708;-80
2023/09/13 05:15:01;;;;;;;8.20;1.20;;;18.20;99.90;;;;;;5000276;28;20022;-78
2023/09/13 05:17:29;;;;;;;0.57;0.55;;;18.20;99.90;;;;;;5003454;28;20045;-78
2023/09/13 05:19:55;;;;;;;1.13;1.02;;;18.20;99.90;;;;;;4999237;28;20037;-77
2023/09/13 05:22:21;;;;;;;0.40;0.20;;;18.30;99.90;;;;;;4999561;28;20375;-78
2023/09/13 05:24:47;;;;;;;1.75;0.80;;;18.30;99.90;;;;;;4997551;28;20049;-80
2023/09/13 05:27:14;;;;;;;0.82;0.60;;;18.40;99.90;;;;;;4996263;28;20362;-83
2023/09/13 05:29:40;;;;;;;0.75;0.73;;;18.50;99.90;;;;;;5005309;28;20065;-77
2023/09/13 05:32:06;;;;;;;1.25;1.13;;;18.50;99.90;;;;;;5002751;28;20498;-77
2023/09/13 05:34:32;;;;;;;1.73;1.13;;;18.60;99.90;;;;;;5003484;28;20041;-80
2023/09/13 05:36:58;;;;;;;2.05;0.65;;;18.70;99.90;;;;;;5003854;28;20459;-78
2023/09/13 05:39:26;;;;;;;1.02;0.88;;;18.70;99.90;;;;;;5000404;28;20041;-78
2023/09/13 05:41:54;;;;;;;0.43;0.43;;;18.80;99.90;;;;;;4997218;28;20376;-77
2023/09/13 05:44:24;;;;;;;0.90;0.88;;;18.80;99.90;;;;;;4998981;28;20026;-79
2023/09/13 05:46:52;;;;;;;0.20;0.20;;;18.90;93.20;;;;;;4999367;28;20038;-78
2023/09/13 05:49:18;;;;;;;0.93;0.60;;;18.90;98.00;;;;;;4998851;28;20030;-78
2023/09/13 05:51:48;;;;;;;0.65;0.65;;;19.00;92.10;;;;;;5000361;28;20037;-80
2023/09/13 05:54:14;;;;;;;0.88;0.70;;;19.00;84.90;;;;;;5003217;28;20033;-82
2023/09/13 05:56:41;;;;;;;0.60;0.60;;;19.00;78.00;;;;;;5003119;28;20478;-80
2023/09/13 05:59:08;;;;;;;0.55;0.30;;;19.00;91.40;;;;;;5002278;28;20030;-81
2023/09/13 06:01:35;;;;;;;0.75;0.70;;;19.00;69.40;;;;;;5003841;28;20029;-81
2023/09/13 06:04:01;;;;;;;1.08;0.95;;;19.00;74.10;;;;;;4999716;28;20451;-81
2023/09/13 06:06:29;;;;;;;1.17;0.30;;;19.00;66.10;;;;;;4998750;28;20030;-80
2023/09/13 06:08:57;;;;;;;0.73;0.55;;;19.00;71.40;;;;;;5008674;28;20080;-81
2023/09/13 06:11:24;;;;;;;1.65;1.00;;;19.00;78.90;;;;;;5006161;28;20046;-80
2023/09/13 06:13:51;;;;;;;0.68;0.43;;;19.00;76.00;;;;;;5003867;28;20048;-80
2023/09/13 06:16:18;;;;;;;0.68;0.68;;;19.00;80.20;;;;;;5002843;28;20030;-80
2023/09/13 06:18:44;;;;;;;1.58;1.00;;;19.00;78.90;;;;;;5005581;28;20030;-80
2023/09/13 06:21:12;;;;;;;0.75;0.75;;;19.00;73.60;;;;;;5002334;28;20030;-83
2023/09/13 06:23:39;;;;;;;0.52;0.30;;;19.00;77.00;;;;;;4999405;28;20053;-80
2023/09/13 06:26:07;;;;;;;0.82;0.50;;;19.10;75.60;;;;;;5001948;28;20046;-80
2023/09/13 06:28:33;;;;;;;2.35;0.40;;;19.10;74.60;;;;;;5001891;28;20022;-80
2023/09/13 06:31:00;;;;;;;0.30;0.30;;;19.20;61.60;;;;;;5000537;28;20053;-80
2023/09/13 06:33:26;;;;;;;1.10;1.00;;;19.20;70.50;;;;;;4998378;28;20057;-80
2023/09/13 06:35:55;;;;;;;0.85;0.68;;;19.20;45.50;;;;;;5004858;28;20033;-80
2023/09/13 06:38:22;;;;;;;0.30;0.30;;;19.20;65.60;;;;;;5001808;28;20475;-80
2023/09/13 06:40:49;;;;;;;1.08;0.77;;;19.20;34.30;;;;;;5000572;28;20038;-80
2023/09/13 06:43:15;;;;;;;1.77;0.52;;;19.30;39.10;;;;;;5001443;28;20037;-82
2023/09/13 06:45:41;;;;;;;0.52;0.52;;;19.30;54.50;;;;;;5001068;28;20030;-80
2023/09/13 06:48:07;;;;;;;0.45;0.45;;;19.40;13.80;;;;;;5002611;28;20037;-81
2023/09/13 06:50:34;;;;;;;2.40;1.38;;;19.50;20.50;;;;;;5022323;28;20041;-81
2023/09/13 06:53:00;;;;;;;0.45;0.30;;;19.60;24.70;;;;;;4997442;28;20359;-81
2023/09/13 06:55:27;;;;;;;2.78;0.30;;;19.70;1.00;;;;;;5002583;28;20030;-80
2023/09/13 06:57:53;;;;;;;0.60;0.60;;;19.70;1.00;;;;;;5001362;28;20034;-79
2023/09/13 07:00:19;;;;;;;1.50;1.30;;;19.80;1.00;;;;;;5004353;28;20037;-83
2023/09/13 07:02:45;;;;;;;0.57;0.57;;;19.80;1.00;;;;;;5006402;28;20041;-80
2023/09/13 07:05:12;;;;;;;2.05;1.23;;;19.80;1.00;;;;;;5002962;28;20034;-79
2023/09/13 07:07:38;;;;;;;1.70;1.05;;;19.80;1.00;;;;;;4999829;28;20053;-80
2023/09/13 07:10:04;;;;;;;1.10;0.52;;;19.90;1.00;;;;;;5006983;28;20025;-80
2023/09/13 07:12:30;;;;;;;2.80;1.20;;;19.90;1.00;;;;;;5002089;28;20097;-80
2023/09/13 07:14:56;;;;;;;0.90;0.50;;;20.00;1.00;;;;;;5001546;28;20033;-84
2023/09/13 07:17:23;;;;;;;0.88;0.60;;;20.10;1.00;;;;;;5002079;28;20037;-80
2023/09/13 07:19:49;;;;;;;1.15;1.05;;;20.10;1.00;;;;;;5010383;28;20033;-80
2023/09/13 07:22:15;;;;;;;0.73;0.50;;;20.20;1.00;;;;;;5006772;28;20446;-80
2023/09/13 07:24:41;;;;;;;0.50;0.50;;;20.30;1.00;;;;;;5005052;28;20053;-80
2023/09/13 07:27:07;;;;;;;0.73;0.70;;;20.40;1.00;;;;;;5010450;28;20056;-79
2023/09/13 07:29:33;;;;;;;0.40;0.40;;;20.50;1.00;;;;;;5005575;28;20074;-80
2023/09/13 07:32:02;;;;;;;0.25;0.25;;;20.60;99.90;;;;;;5001099;28;20053;-79
2023/09/13 07:34:29;;;;;;;0.88;0.73;;;20.60;99.90;;;;;;5005493;28;20561;-79
2023/09/13 07:36:55;;;;;;;0.95;0.95;;;20.80;1.00;;;;;;5005380;28;20029;-80
2023/09/13 07:39:21;;;;;;;0.17;0.17;;;20.90;99.90;;;;;;5003348;28;20026;-80
2023/09/13 07:41:47;;;;;;;1.58;0.35;;;21.00;99.90;;;;;;5005252;28;20037;-80
2023/09/13 07:44:13;;;;;;;0.85;0.57;;;21.00;99.90;;;;;;5005041;28;20026;-80
2023/09/13 07:46:39;;;;;;;0.30;0.30;;;21.00;99.90;;;;;;5006108;28;20226;-80
2023/09/13 07:49:05;;;;;;;0.40;0.40;;;21.00;99.90;;;;;;5003944;28;20057;-81
2023/09/13 07:51:32;;;;;;;1.77;1.67;;;20.90;99.90;;;;;;5003503;28;20030;-80
2023/09/13 07:54:03;;;;;;;0.35;0.22;;;20.80;99.90;;;;;;5006087;28;20042;-80
2023/09/13 07:56:30;;;;;;;0.70;0.45;;;20.70;99.90;;;;;;5001944;28;20372;-80
2023/09/13 07:58:57;;;;;;;1.60;0.80;;;20.50;99.90;;;;;;5000169;28;20037;-80
2023/09/13 08:01:23;;;;;;;1.95;1.30;;;20.50;99.90;;;;;;5004885;28;20037;-79
2023/09/13 08:03:49;;;;;;;0.75;0.75;;;20.40;99.90;;;;;;5008137;28;20037;-80
2023/09/13 08:06:15;;;;;;;0.40;0.30;;;20.40;99.90;;;;;;5003932;28;20049;-81
2023/09/13 08:08:41;;;;;;;1.90;1.00;;;20.40;99.90;;;;;;5003824;28;20042;-80
2023/09/13 08:11:07;;;;;;;0.40;0.40;;;20.50;99.90;;;;;;5007759;28;20026;-79
2023/09/13 08:13:33;;;;;;;0.85;0.73;;;20.50;99.90;;;;;;5001185;28;20403;-80
2023/09/13 08:16:00;;;;;;;0.40;0.40;;;20.80;99.90;;;;;;5000304;28;20045;-80
2023/09/13 08:18:26;;;;;;;0.32;0.32;;;21.10;99.90;;;;;;5009699;28;20037;-80
2023/09/13 08:20:52;;;;;;;0.57;0.47;;;21.40;99.90;;;;;;5004568;28;20410;-78
2023/09/13 08:23:18;;;;;;;1.15;1.05;;;21.60;99.90;;;;;;5001436;28;20638;-78
2023/09/13 08:25:45;;;;;;;0.40;0.40;;;21.80;99.90;;;;;;5003980;28;20030;-82
2023/09/13 08:28:11;;;;;;;0.68;0.68;;;22.00;99.90;;;;;;5006577;28;20030;-78
2023/09/13 08:30:37;;;;;;;0.85;0.85;;;22.10;99.90;;;;;;5004226;28;20061;-78
2023/09/13 08:33:06;;;;;;;0.50;0.50;;;22.30;99.90;;;;;;5005117;28;20379;-78
2023/09/13 08:35:33;;;;;;;3.00;0.77;;;22.50;99.90;;;;;;5001066;28;20037;-78
2023/09/13 08:37:59;;;;;;;13.95;2.08;;;22.60;99.90;;;;;;5005736;28;20048;-79
2023/09/13 08:40:25;;;;;;;0.50;0.50;;;22.70;99.90;;;;;;5001094;28;20025;-78
2023/09/13 08:42:53;;;;;;;0.30;0.30;;;22.60;99.90;;;;;;5004218;28;20038;-77
2023/09/13 08:45:21;;;;;;;0.20;0.20;;;22.30;99.90;;;;;;5006636;28;20038;-78
2023/09/13 08:47:49;;;;;;;0.85;0.60;;;22.00;99.90;;;;;;5002761;28;20042;-78
2023/09/13 08:50:19;;;;;;;0.73;0.40;;;21.90;99.90;;;;;;5006859;28;20036;-81
2023/09/13 08:52:46;;;;;;;1.08;1.00;;;21.80;99.90;;;;;;5002781;28;20048;-80
2023/09/13 08:55:13;;;;;;;0.20;0.20;;;21.70;99.90;;;;;;5005852;28;20033;-79
2023/09/13 08:57:40;;;;;;;0.60;0.60;;;21.80;99.90;;;;;;5003866;28;20034;-79
2023/09/13 09:00:08;;;;;;;1.75;1.05;;;21.90;99.90;;;;;;5004057;28;20459;-78
2023/09/13 09:02:35;;;;;;;0.55;0.55;;;22.20;99.90;;;;;;5006120;28;20447;-78
2023/09/13 09:05:05;;;;;;;0.55;0.40;;;22.40;99.90;;;;;;5000028;28;20122;-77
2023/09/13 09:07:32;;;;;;;;;;;22.10;99.90;;;;;;4999119;28;20030;-78
2023/09/13 09:09:59;;;;;;;0.57;0.55;;;22.20;99.90;;;;;;5010190;28;19901;-79
2023/09/13 09:12:26;;;;;;;0.82;0.55;;;22.10;99.90;;;;;;5004302;28;20040;-79
2023/09/13 09:14:55;;;;;;;0.47;0.47;;;22.00;99.90;;;;;;5002601;28;20030;-80
2023/09/13 09:17:23;;;;;;;0.43;0.43;;;22.00;99.90;;;;;;5005839;28;20046;-79
2023/09/13 09:19:50;;;;;;;3.03;1.75;;;22.10;99.90;;;;;;5003689;28;20409;-79
2023/09/13 09:22:18;;;;;;;0.30;0.20;;;22.40;99.90;;;;;;5002320;28;20471;-79
2023/09/13 09:24:44;;;;;;;0.40;0.40;;;23.30;99.90;;;;;;5000401;28;20049;-80
2023/09/13 09:27:12;;;;;;;0.77;0.75;;;23.80;99.90;;;;;;5000944;28;20030;-79
2023/09/13 09:29:39;;;;;;;0.30;0.30;;;23.90;78.60;;;;;;5004819;28;20050;-79
2023/09/13 09:32:08;;;;;;;1.15;0.75;;;23.70;99.90;;;;;;5005048;28;20038;-79
2023/09/13 09:34:40;;;;;;;0.68;0.68;;;23.60;94.40;;;;;;5001904;28;20029;-79
2023/09/13 09:37:07;;;;;;;0.82;0.77;;;23.20;90.50;;;;;;5007793;28;20463;-78
2023/09/13 09:39:51;;;;;;;0.28;0.20;;;22.70;99.90;;;;;;5006543;28;20363;-79
2023/09/13 09:42:17;;;;;;;0.38;0.38;;;22.50;99.90;;;;;;5001354;28;20371;-79
2023/09/13 09:44:43;;;;;;;1.85;0.77;;;22.10;99.90;;;;;;5003538;28;20030;-83
2023/09/13 09:47:14;;;;;;;0.75;0.63;;;21.90;99.90;;;;;;5001018;28;20486;-79
2023/09/13 09:49:43;;;;;;;1.30;1.13;;;21.60;99.90;;;;;;4999401;28;20050;-79
2023/09/13 09:52:10;;;;;;;1.90;1.10;;;21.50;99.90;;;;;;5001986;28;20098;-80
2023/09/13 09:54:37;;;;;;;1.25;0.70;;;21.40;99.90;;;;;;5000753;28;20034;-80
2023/09/13 09:57:04;;;;;;;0.40;0.40;;;21.30;99.90;;;;;;5001513;28;20034;-79
2023/09/13 09:59:32;;;;;;;0.98;0.55;;;21.20;99.90;;;;;;5004414;28;20038;-80
2023/09/13 10:02:00;;;;;;;0.40;0.40;;;21.30;99.90;;;;;;5004537;28;20055;-80
2023/09/13 10:04:26;;;;;;;0.25;0.25;;;21.30;99.90;;;;;;5002380;28;20030;-79
2023/09/13 10:07:03;;;;;;;1.27;1.17;;;21.30;99.90;;;;;;4999017;28;20037;-80
2023/09/13 10:09:39;;;;;;;1.05;0.52;;;21.50;99.90;;;;;;5000203;28;20034;-80
2023/09/13 10:12:07;;;;;;;1.33;0.77;;;21.50;99.90;;;;;;5000332;28;20036;-80
2023/09/13 10:14:34;;;;;;;0.47;0.45;;;21.70;99.90;;;;;;5001991;28;20046;-79
2023/09/13 10:17:03;;;;;;;0.52;0.40;;;21.80;99.90;;;;;;5005592;28;20029;-79
2023/09/13 10:19:31;;;;;;;0.40;0.40;;;22.30;99.90;;;;;;5005615;28;20037;-81
2023/09/13 10:21:58;;;;;;;0.20;0.20;;;22.70;99.90;;;;;;5002600;28;20041;-79
2023/09/13 10:24:35;;;;;;;0.60;0.60;;;23.20;99.70;;;;;;4999196;28;20033;-80
2023/09/13 10:27:06;;;;;;;0.22;0.22;;;23.40;57.30;;;;;;5000684;28;20049;-80
2023/09/13 10:29:47;;;;;;;0.80;0.47;;;23.40;48.80;;;;;;5000401;28;20042;-79
2023/09/13 10:32:15;;;;;;;0.38;0.38;;;23.40;68.50;;;;;;4998951;28;20030;-80
2023/09/13 10:35:08;;;;;;;0.55;0.55;;;23.90;49.20;;;;;;4999113;28;20038;-79
2023/09/13 10:37:49;;;;;;;0.63;0.63;;;23.90;22.10;;;;;;5005785;28;20472;-79
2023/09/13 10:40:27;;;;;;;3.72;0.35;;;23.90;21.00;;;;;;5007218;28;20021;-78
2023/09/13 10:42:54;;;;;;;0.90;0.47;;;24.30;15.80;;;;;;5002713;28;20463;-79
2023/09/13 10:45:22;;;;;;;0.98;0.85;;;24.50;1.00;;;;;;5006564;28;20045;-80
2023/09/13 10:47:50;;;;;;;0.40;0.40;;;24.30;1.00;;;;;;5003497;28;20060;-80
2023/09/13 10:50:17;;;;;;;0.22;0.22;;;24.30;1.00;;;;;;5002072;28;20360;-80
2023/09/13 10:52:48;;;;;;;0.50;0.45;;;24.10;1.00;;;;;;5005134;28;20033;-79
2023/09/13 10:55:15;;;;;;;0.68;0.45;;;24.10;1.00;;;;;;5004335;28;20025;-79
2023/09/13 10:57:43;;;;;;;1.15;1.05;;;23.80;1.00;;;;;;5005006;28;20050;-80
2023/09/13 11:00:11;;;;;;;0.43;0.43;;;23.80;1.00;;;;;;5010088;28;20026;-80
2023/09/13 11:02:42;;;;;;;0.65;0.65;;;24.00;1.00;;;;;;5008135;28;20677;-81
2023/09/13 11:05:09;;;;;;;0.77;0.77;;;24.30;1.00;;;;;;5004114;28;20038;-80
2023/09/13 11:07:46;;;;;;;0.73;0.73;;;24.20;1.00;;;;;;5003609;28;20042;-83
2023/09/13 11:10:15;;;;;;;1.67;0.85;;;23.80;1.00;;;;;;5003652;28;20470;-80
2023/09/13 11:12:48;;;;;;;1.58;0.50;;;23.60;4.20;;;;;;5003624;28;20049;-81
2023/09/13 11:15:22;;;;;;;0.47;0.47;;;23.40;10.00;;;;;;5001203;28;20026;-80
2023/09/13 11:17:54;;;;;;;0.35;0.35;;;23.40;14.90;;;;;;5001514;28;20371;-81
2023/09/13 11:20:37;;;;;;;0.20;0.20;;;23.50;8.00;;;;;;5005085;28;20033;-80
2023/09/13 11:23:09;;;;;;;0.85;0.47;;;23.50;5.70;;;;;;5004741;28;20037;-80
2023/09/13 11:25:42;;;;;;;0.22;0.22;;;23.60;6.20;;;;;;5003327;28;20141;-80
2023/09/13 11:28:36;;;;;;;0.22;0.22;;;23.70;1.00;;;;;;5004122;28;20046;-80
2023/09/13 11:31:03;;;;;;;5.45;0.95;;;23.70;1.60;;;;;;5004202;28;20046;-81
2023/09/13 11:33:31;;;;;;;0.63;0.63;;;23.60;3.00;;;;;;5001697;28;20154;-80
2023/09/13 11:35:58;;;;;;;0.22;0.22;;;23.70;3.40;;;;;;5004991;28;20034;-80
2023/09/13 11:38:26;;;;;;;0.30;0.30;;;23.60;3.10;;;;;;5002821;28;20030;-80
2023/09/13 11:40:56;;;;;;;0.47;0.47;;;23.50;1.00;;;;;;5001244;28;20106;-81
2023/09/13 11:43:27;;;;;;;0.30;0.30;;;23.40;1.00;;;;;;5007546;28;20029;-80
2023/09/13 11:45:57;;;;;;;0.40;0.40;;;23.30;6.80;;;;;;5006577;28;20034;-80
2023/09/13 11:48:26;;;;;;;;;;;23.50;2.90;;;;;;5010357;28;20045;-80
2023/09/13 11:50:53;;;;;;;0.30;0.30;;;23.70;1.00;;;;;;4999367;28;19906;-81
2023/09/13 11:53:28;;;;;;;1.60;0.80;;;23.80;1.00;;;;;;5007414;28;20033;-81
2023/09/13 11:55:56;;;;;;;0.75;0.57;;;23.50;1.00;;;;;;5001619;28;20030;-81
2023/09/13 11:58:36;;;;;;;0.90;0.82;;;23.30;1.00;;;;;;5000280;28;20039;-84
2023/09/13 12:01:05;;;;;;;0.55;0.55;;;23.30;1.00;;;;;;5005693;28;20038;-79
2023/09/13 12:03:37;;;;;;;0.25;0.25;;;23.30;1.00;;;;;;5013260;28;20084;-83
2023/09/13 12:06:03;;;;;;;0.43;0.20;;;23.20;1.00;;;;;;5012932;28;20026;-80
2023/09/13 12:08:31;;;;;;;0.40;0.40;;;23.10;6.50;;;;;;5007881;28;20042;-81
2023/09/13 12:11:01;;;;;;;1.10;0.50;;;23.00;1.00;;;;;;5010834;28;20042;-83
2023/09/13 12:13:46;;;;;;;2.35;0.88;;;23.00;1.00;;;;;;4997499;28;20056;-80
2023/09/13 12:16:14;;;;;;;0.30;0.30;;;22.80;3.60;;;;;;5003359;28;20033;-79
2023/09/13 12:18:42;;;;;;;0.75;0.75;;;22.90;7.00;;;;;;5008555;28;20363;-82
2023/09/13 12:21:10;;;;;;;0.30;0.30;;;22.90;13.00;;;;;;5003028;28;20061;-80
2023/09/13 12:23:39;;;;;;;0.57;0.52;;;22.90;21.20;;;;;;5000560;28;20038;-81
2023/09/13 12:26:10;;;;;;;0.68;0.63;;;23.10;20.10;;;;;;5003348;28;20118;-79
2023/09/13 12:28:39;;;;;;;0.30;0.30;;;23.10;23.50;;;;;;5008727;28;20050;-79
2023/09/13 12:31:09;;;;;;;0.40;0.40;;;22.90;31.20;;;;;;5004708;28;20050;-82
2023/09/13 12:33:39;;;;;;;0.57;0.40;;;22.80;34.40;;;;;;5003731;28;20045;-81
2023/09/13 12:36:06;;;;;;;0.32;0.32;;;22.80;44.80;;;;;;4999813;28;20053;-81
2023/09/13 12:38:41;;;;;;;0.30;0.20;;;22.90;51.00;;;;;;5002122;28;20037;-83
2023/09/13 12:41:12;;;;;;;0.10;0.10;;;23.00;35.40;;;;;;5001388;28;20451;-83
2023/09/13 12:43:40;;;;;;;0.50;0.50;;;23.00;41.20;;;;;;5002520;28;20489;-81
2023/09/13 12:46:09;;;;;;;0.80;0.40;;;22.90;49.20;;;;;;5007322;28;20034;-80
2023/09/13 12:48:38;;;;;;;0.60;0.60;;;22.90;45.50;;;;;;5003997;28;20048;-81
2023/09/13 12:51:04;;;;;;;0.52;0.40;;;22.80;63.50;;;;;;5004028;28;20022;-81
2023/09/13 12:53:31;;;;;;;0.47;0.40;;;22.80;72.90;;;;;;5006102;28;20030;-82
2023/09/13 12:55:59;;;;;;;0.32;0.32;;;22.80;74.30;;;;;;5003540;28;20375;-85